CTSO2: Bird Creek At Catoosa

                                SHEF ID:       CTSO2     Bird Ck at State Highway 266 nea
STATION TYPE:
Regulating: Stage = 26.00, Flow = 20953

STAGE STAGE(2) RIV-FLOW WTR-TEMP DIS-OXY PH CONDUCT BAT-LOAD
ft ft cfs F mg/l su umho/cm volt
Ccp-Rev Ccp-Rev Ccp-Rev Ccp-Rev Ccp-Rev Ccp-Rev Ccp-Rev Ccp-Rev
(America/Chicago)
02/07 00:00 4.12 3.42 184 47.26 13.32 8.08 520 12.60
02/07 01:00 4.12 3.42 184 47.43 13.58 8.12 522 12.59
02/07 02:00 4.13 3.42 187 47.52 13.07 8.12 525 12.54
02/07 03:00 4.12 3.42 184 47.59 12.92 8.13 527 12.57
02/07 04:00 4.10 3.42 180 47.61 12.63 8.12 531 12.45
02/07 05:00 4.09 3.42 178 47.62 12.34 8.09 522 12.47
02/07 06:00 4.07 3.42 173 47.64 12.17 8.03 528 12.14
02/07 07:00 4.06 3.42 171 47.82 12.08 8.05 531 12.24
02/07 08:00 4.05 3.42 169 48.06 12.01 7.99 529 12.17
02/07 09:00 4.04 3.42 167 48.31 11.99 8.01 524 13.48
02/07 10:00 4.04 3.42 167 48.52 12.19 8.01 517 13.39
02/07 11:00 4.06 3.43 171 48.76 12.30 8.03 515 13.52
02/07 12:00 4.07 3.43 173 48.87 12.35 8.09 508 13.45
02/07 13:00 4.08 3.42 176 48.85 12.52 8.05 505 13.39
02/07 14:00 4.10 3.42 180 48.74 12.60 8.06 499 13.01
02/07 15:00 4.14 3.42 189 48.63 12.54 8.07 496 12.86
02/07 16:00 4.14 3.42 189 48.51 12.46 8.09 501 12.80
02/07 17:00 4.15 3.42 191 48.36 12.44 8.03 497 13.10
02/07 18:00 4.14 3.42 189 48.20 12.58 8.02 495 12.28
02/07 19:00 4.13 3.42 187 48.06 12.69 8.02 495 12.48
02/07 20:00 4.13 3.42 187 48.02 12.53 8.01 493 12.48
02/07 21:00 4.13 3.42 187 47.98 12.53 8.04 490 12.63
02/07 22:00 4.12 3.42 184 47.97 12.62 8.05 489 12.64
02/07 23:00 ---- ---- ---- ---- ---- ---- ---- ----
Data processed at Sun 08Feb2026 05:21 GMT

NOTICE: If you are parsing this page

Please convert to using our Data API. Starting early 2026 we will be migrating to: https://water.usace.army.mil with modern pages rendered in JavaScript. When this migration completes you will no longer be able to scrape this page! CWMSDataAPI (CDA)

Timeseries IDs (TSIDs)

TSIDs used from left to right in the data table
CATB.Stage.Inst.1Hour.0.Ccp-Rev
CATB.Stage-Alt.Inst.1Hour.0.Ccp-Rev
CATB.Flow.Inst.1Hour.0.Ccp-Rev
CATB.Temp-Water.Inst.1Hour.0.Ccp-Rev
CATB.Conc-DO.Inst.1Hour.0.Ccp-Rev
CATB.pH.Inst.1Hour.0.Ccp-Rev
CATB.Cond-Water.Inst.1Hour.0.Ccp-Rev
CATB.Volt-Battery Load.Inst.1Hour.0.Ccp-Rev

                            

All information presented herein is the property of the government of the United States of America and may be revised or deleted at any time without prior notice. Dissemination of this information without the expressed written consent of the Public Affairs Office, Tulsa District U.S. Army Corps of Engineers is strictly prohibited. These data are gathered electronically and, as presented, have NOT undergone any form of quality control. These data are NOT guaranteed to be valid or correct.